Time;durP1;ratioP1;P1;durP2;ratioP2;P2;SDS_P1;SDS_P2;PMS_P1;PMS_P2;Temp;Humidity;BMP_temperature;BMP_pressure;BME280_temperature;BME280_humidity;BME280_pressure;Samples;Min_cycle;Max_cycle;Signal;HPM_P1;HPM_P2
2021/10/14 00:01:05;;;;;;;44.00;15.02;;;;;;;11.89;100.00;102745.66;5074909;28;20180;-76
2021/10/14 00:03:30;;;;;;;36.88;14.70;;;;;;;11.91;100.00;102744.59;5092484;28;20042;-75
2021/10/14 00:05:56;;;;;;;38.75;14.55;;;;;;;11.93;100.00;102741.88;5093228;28;20032;-74
2021/10/14 00:08:21;;;;;;;41.47;14.82;;;;;;;11.95;100.00;102734.59;5092567;28;20123;-75
2021/10/14 00:10:46;;;;;;;39.83;14.10;;;;;;;11.94;100.00;102733.75;5092924;28;20070;-76
2021/10/14 00:13:12;;;;;;;43.00;15.13;;;;;;;11.94;100.00;102731.09;5093015;28;20121;-74
2021/10/14 00:15:37;;;;;;;36.20;15.30;;;;;;;11.95;100.00;102730.13;5092378;28;20035;-74
2021/10/14 00:18:03;;;;;;;37.13;15.68;;;;;;;11.97;100.00;102722.00;5093765;28;20165;-76
2021/10/14 00:20:29;;;;;;;37.08;15.05;;;;;;;11.97;100.00;102716.69;5092299;28;20036;-75
2021/10/14 00:22:55;;;;;;;35.08;14.38;;;;;;;11.95;100.00;102718.59;5093143;28;20531;-75
2021/10/14 00:25:22;;;;;;;43.05;14.70;;;;;;;11.92;100.00;102716.94;5092420;28;20067;-76
2021/10/14 00:27:51;;;;;;;38.25;15.38;;;;;;;11.91;100.00;102711.72;5092425;28;20076;-75
2021/10/14 00:30:17;;;;;;;39.28;14.40;;;;;;;11.88;100.00;102711.94;5093942;28;20033;-75
2021/10/14 00:32:43;;;;;;;43.33;16.85;;;;;;;11.88;100.00;102711.94;5092711;28;20043;-75
2021/10/14 00:35:09;;;;;;;33.25;14.88;;;;;;;11.89;100.00;102708.31;5092468;28;20487;-75
2021/10/14 00:37:34;;;;;;;39.58;16.05;;;;;;;11.90;100.00;102707.38;5092094;28;20109;-75
2021/10/14 00:40:00;;;;;;;34.38;15.15;;;;;;;11.91;100.00;102707.25;5092691;28;20066;-75
2021/10/14 00:42:25;;;;;;;36.20;15.65;;;;;;;11.91;100.00;102709.06;5091646;28;20059;-75
2021/10/14 00:44:55;;;;;;;34.83;15.18;;;;;;;11.90;100.00;102710.03;5074743;28;20162;-75
2021/10/14 00:47:25;;;;;;;35.13;15.35;;;;;;;11.88;100.00;102703.94;5073999;28;20107;-76
2021/10/14 00:49:51;;;;;;;35.63;16.05;;;;;;;11.87;100.00;102708.41;5092533;28;20025;-76
2021/10/14 00:52:17;;;;;;;35.47;14.70;;;;;;;11.85;100.00;102702.31;5092663;28;20032;-76
2021/10/14 00:54:45;;;;;;;34.53;14.80;;;;;;;11.87;100.00;102699.53;5091919;28;20379;-76
2021/10/14 00:57:13;;;;;;;36.85;15.35;;;;;;;11.87;100.00;102699.53;5092598;28;20106;-76
2021/10/14 00:59:40;;;;;;;33.75;14.18;;;;;;;11.88;100.00;102698.59;5091759;28;20077;-76
2021/10/14 01:02:07;;;;;;;38.40;14.45;;;;;;;11.93;100.00;102701.84;5092383;28;20032;-75
2021/10/14 01:04:33;;;;;;;39.53;15.88;;;;;;;11.96;100.00;102697.16;5091462;28;20465;-76
2021/10/14 01:06:59;;;;;;;39.17;15.90;;;;;;;11.97;100.00;102693.53;5092322;28;20036;-75
2021/10/14 01:09:25;;;;;;;41.55;16.50;;;;;;;11.97;100.00;102690.88;5091694;28;20028;-76
2021/10/14 01:11:50;;;;;;;45.28;17.90;;;;;;;11.98;100.00;102689.06;5092213;28;20093;-76
2021/10/14 01:14:16;;;;;;;46.50;18.00;;;;;;;12.01;100.00;102693.34;5096427;28;20036;-76
2021/10/14 01:16:43;;;;;;;43.65;16.92;;;;;;;12.01;100.00;102683.50;5077569;28;20119;-75
2021/10/14 01:19:09;;;;;;;42.55;17.30;;;;;;;12.02;100.00;102687.91;5096247;28;20028;-75
2021/10/14 01:21:35;;;;;;;38.10;17.00;;;;;;;12.03;100.00;102688.75;5095764;28;20036;-76
2021/10/14 01:24:01;;;;;;;37.75;16.38;;;;;;;12.02;100.00;102679.91;5096484;28;20369;-75
2021/10/14 01:26:27;;;;;;;36.90;16.25;;;;;;;11.99;100.00;102672.94;5095275;28;20048;-76
2021/10/14 01:28:53;;;;;;;28.50;15.63;;;;;;;11.98;100.00;102671.22;5096072;28;20063;-76
2021/10/14 01:31:21;;;;;;;35.75;15.63;;;;;;;11.97;100.00;102669.53;5095665;28;20027;-76
2021/10/14 01:33:46;;;;;;;36.88;15.45;;;;;;;11.97;100.00;102666.00;5077229;28;20383;-76
2021/10/14 01:36:11;;;;;;;38.10;16.38;;;;;;;11.97;100.00;102666.88;5077731;28;20044;-75
2021/10/14 01:38:37;;;;;;;36.70;16.13;;;;;;;11.98;100.00;102662.38;5095267;28;20071;-75
2021/10/14 01:41:02;;;;;;;36.80;15.85;;;;;;;11.99;100.00;102651.59;5095554;28;20373;-75
2021/10/14 01:43:27;;;;;;;40.75;16.48;;;;;;;11.99;100.00;102654.28;5095054;28;20028;-76
2021/10/14 01:45:53;;;;;;;34.45;16.30;;;;;;;11.98;100.00;102657.03;5095849;28;20052;-75
2021/10/14 01:48:19;;;;;;;38.08;16.67;;;;;;;11.97;100.00;102666.00;5095753;28;20062;-75
2021/10/14 01:50:44;;;;;;;41.28;18.00;;;;;;;11.97;100.00;102660.66;5094964;28;20032;-75
2021/10/14 01:53:10;;;;;;;39.08;17.60;;;;;;;11.95;100.00;102663.44;5095246;28;20040;-75
2021/10/14 01:55:35;;;;;;;39.28;17.02;;;;;;;11.94;100.00;102667.06;5095036;28;20494;-75
2021/10/14 01:58:00;;;;;;;40.53;17.55;;;;;;;11.93;100.00;102662.69;5095243;28;20479;-75
2021/10/14 02:00:26;;;;;;;36.63;17.85;;;;;;;11.95;100.00;102660.75;5095495;28;20180;-75
2021/10/14 02:02:51;;;;;;;40.67;17.65;;;;;;;11.96;100.00;102661.63;5094798;28;20027;-75
2021/10/14 02:05:17;;;;;;;50.85;18.80;;;;;;;11.97;100.00;102660.66;5095470;28;20032;-75
2021/10/14 02:07:42;;;;;;;37.47;17.90;;;;;;;11.97;100.00;102663.31;5094464;28;20038;-75
2021/10/14 02:10:08;;;;;;;35.80;17.05;;;;;;;11.96;100.00;102662.47;5095381;28;20514;-75
2021/10/14 02:12:33;;;;;;;48.20;17.27;;;;;;;11.93;100.00;102660.03;5094312;28;20060;-75
2021/10/14 02:14:58;;;;;;;38.20;17.10;;;;;;;11.92;100.00;102650.28;5095256;28;20060;-75
2021/10/14 02:17:24;;;;;;;42.20;18.35;;;;;;;11.91;100.00;102648.59;5076991;28;20036;-75
2021/10/14 02:19:49;;;;;;;43.45;18.30;;;;;;;11.90;100.00;102654.88;5094400;28;20039;-75
2021/10/14 02:22:14;;;;;;;38.90;17.42;;;;;;;11.88;100.00;102639.91;5094800;28;20116;-76
2021/10/14 02:24:40;;;;;;;45.42;18.65;;;;;;;11.86;100.00;102645.34;5075079;28;20120;-76
2021/10/14 02:27:05;;;;;;;38.78;18.38;;;;;;;11.83;100.00;102643.75;5094913;28;20144;-75
2021/10/14 02:29:30;;;;;;;45.20;19.30;;;;;;;11.84;100.00;102644.63;5094525;28;20028;-77
2021/10/14 02:31:56;;;;;;;56.75;20.13;;;;;;;11.83;100.00;102640.22;5094803;28;20036;-75
2021/10/14 02:34:21;;;;;;;52.55;19.67;;;;;;;11.81;100.00;102634.16;5094872;28;20040;-75
2021/10/14 02:36:47;;;;;;;51.92;21.42;;;;;;;11.79;100.00;102636.94;5076097;28;20047;-76
2021/10/14 02:39:12;;;;;;;50.83;21.70;;;;;;;11.81;100.00;102639.50;5094782;28;20032;-75
2021/10/14 02:41:38;;;;;;;46.78;19.33;;;;;;;11.83;100.00;102634.91;5094166;28;20035;-75
2021/10/14 02:44:03;;;;;;;53.58;21.52;;;;;;;11.85;100.00;102635.63;5094614;28;20464;-75
2021/10/14 02:46:29;;;;;;;54.35;22.60;;;;;;;11.91;100.00;102645.03;5094649;28;20028;-76
2021/10/14 02:48:54;;;;;;;56.33;21.85;;;;;;;11.98;100.00;102641.03;5093612;28;20109;-76
2021/10/14 02:51:20;;;;;;;50.90;18.23;;;;;;;12.03;100.00;102646.91;5076239;28;20040;-76
2021/10/14 02:53:45;;;;;;;42.28;16.73;;;;;;;12.05;100.00;102647.66;5093516;28;20495;-76
2021/10/14 02:56:10;;;;;;;38.90;15.25;;;;;;;12.06;100.00;102643.19;5094394;28;20452;-75
2021/10/14 02:58:36;;;;;;;40.92;14.75;;;;;;;12.07;100.00;102637.72;5093796;28;20032;-76
2021/10/14 03:01:01;;;;;;;41.45;14.18;;;;;;;12.09;100.00;102648.31;5094039;28;20042;-75
2021/10/14 03:03:27;;;;;;;36.42;13.38;;;;;;;12.08;100.00;102649.28;5094245;28;20468;-75
2021/10/14 03:05:53;;;;;;;33.83;12.13;;;;;;;12.08;100.00;102646.63;5093844;28;20392;-76
2021/10/14 03:08:18;;;;;;;31.50;10.95;;;;;;;12.07;100.00;102640.41;5093870;28;20028;-76
2021/10/14 03:10:44;;;;;;;31.17;10.13;;;;;;;12.08;100.00;102633.28;5093329;28;20030;-76
2021/10/14 03:13:09;;;;;;;29.23;10.05;;;;;;;12.06;100.00;102644.06;5094032;28;20432;-76
2021/10/14 03:15:35;;;;;;;28.58;9.80;;;;;;;12.05;100.00;102645.00;5093439;28;20077;-77
2021/10/14 03:18:00;;;;;;;22.00;9.30;;;;;;;12.03;100.00;102630.88;5093801;28;20042;-76
2021/10/14 03:20:26;;;;;;;20.85;8.50;;;;;;;12.01;100.00;102631.97;5094006;28;20118;-75
2021/10/14 03:22:51;;;;;;;25.02;8.65;;;;;;;11.98;100.00;102638.38;5092829;28;20037;-75
2021/10/14 03:25:16;;;;;;;18.95;8.45;;;;;;;11.96;100.00;102632.28;5094022;28;20058;-75
2021/10/14 03:27:42;;;;;;;28.08;9.32;;;;;;;11.95;100.00;102639.41;5074851;28;20048;-76
2021/10/14 03:30:07;;;;;;;20.75;9.13;;;;;;;11.93;100.00;102638.69;5075552;28;20028;-75
2021/10/14 03:32:33;;;;;;;20.42;8.55;;;;;;;11.92;100.00;102641.41;5093710;28;20057;-75
2021/10/14 03:34:58;;;;;;;31.73;8.75;;;;;;;11.90;100.00;102636.19;5092751;28;20028;-75
2021/10/14 03:37:23;;;;;;;24.13;8.50;;;;;;;11.88;100.00;102638.09;5093566;28;20481;-75
2021/10/14 03:39:49;;;;;;;33.25;8.68;;;;;;;11.86;100.00;102633.84;5092911;28;20404;-75
2021/10/14 03:42:16;;;;;;;25.45;8.52;;;;;;;11.84;100.00;102628.63;5093663;28;20067;-75
2021/10/14 03:44:41;;;;;;;25.67;8.60;;;;;;;11.83;100.00;102630.41;5092483;28;20484;-75
2021/10/14 03:47:06;;;;;;;25.35;8.38;;;;;;;11.81;100.00;102623.47;5093443;28;20036;-75
2021/10/14 03:49:32;;;;;;;24.05;8.07;;;;;;;11.79;100.00;102618.25;5093139;28;20036;-75
2021/10/14 03:51:57;;;;;;;33.80;8.90;;;;;;;11.76;100.00;102615.81;5092444;28;20118;-75
2021/10/14 03:54:23;;;;;;;26.63;8.77;;;;;;;11.75;100.00;102615.91;5093644;28;20036;-75
2021/10/14 03:56:48;;;;;;;25.50;8.82;;;;;;;11.76;100.00;102620.25;5092796;28;20036;-75
2021/10/14 03:59:13;;;;;;;31.58;8.48;;;;;;;11.77;100.00;102621.97;5093295;28;20161;-75
2021/10/14 04:01:39;;;;;;;25.92;9.50;;;;;;;11.81;100.00;102624.34;5092921;28;20028;-75
2021/10/14 04:04:04;;;;;;;27.85;8.85;;;;;;;11.80;100.00;102627.09;5092624;28;20448;-75
2021/10/14 04:06:30;;;;;;;27.35;8.70;;;;;;;11.81;100.00;102642.16;5093116;28;20097;-75
2021/10/14 04:08:55;;;;;;;28.13;8.27;;;;;;;11.80;100.00;102632.44;5092420;28;20032;-75
2021/10/14 04:11:20;;;;;;;17.38;7.40;;;;;;;11.79;100.00;102636.06;5092669;28;20426;-75
2021/10/14 04:13:46;;;;;;;23.45;7.93;;;;;;;11.84;100.00;102636.63;5092411;28;20369;-76
2021/10/14 04:16:11;;;;;;;21.98;8.00;;;;;;;11.81;100.00;102635.00;5092887;28;20422;-75
2021/10/14 04:18:36;;;;;;;17.33;7.10;;;;;;;11.81;100.00;102632.34;5092879;28;20035;-75
2021/10/14 04:21:03;;;;;;;23.83;6.95;;;;;;;11.79;100.00;102631.59;5092181;28;20075;-75
2021/10/14 04:23:29;;;;;;;13.38;5.72;;;;;;;11.75;100.00;102635.41;5092850;28;20043;-75
2021/10/14 04:25:54;;;;;;;23.42;5.95;;;;;;;11.74;100.00;102631.03;5073849;28;20387;-75
2021/10/14 04:28:19;;;;;;;9.57;4.80;;;;;;;11.76;100.00;102625.59;5092839;28;20377;-75
2021/10/14 04:30:46;;;;;;;10.50;4.82;;;;;;;11.76;100.00;102628.25;5091931;28;20055;-75
2021/10/14 04:33:12;;;;;;;12.80;4.82;;;;;;;11.73;100.00;102631.97;5092525;28;20111;-75
2021/10/14 04:35:37;;;;;;;10.23;4.32;;;;;;;11.74;100.00;102624.84;5074772;28;20056;-75
2021/10/14 04:38:03;;;;;;;10.52;4.07;;;;;;;11.72;100.00;102624.97;5092044;28;20359;-75
2021/10/14 04:40:28;;;;;;;10.65;4.45;;;;;;;11.71;100.00;102619.72;5092776;28;20036;-75
2021/10/14 04:42:53;;;;;;;9.25;4.18;;;;;;;11.68;100.00;102620.78;5091957;28;20071;-74
2021/10/14 04:45:19;;;;;;;9.25;3.80;;;;;;;11.66;100.00;102620.03;5092585;28;20055;-75
2021/10/14 04:47:45;;;;;;;11.63;3.70;;;;;;;11.68;100.00;102622.59;5091932;28;20032;-77
2021/10/14 04:50:10;;;;;;;12.73;4.35;;;;;;;11.69;100.00;102630.50;5092786;28;20032;-74
2021/10/14 04:52:36;;;;;;;9.85;3.60;;;;;;;11.71;100.00;102620.56;5092238;28;20043;-74
2021/10/14 04:55:02;;;;;;;7.55;3.53;;;;;;;11.74;99.22;102619.53;5091604;28;20032;-75
2021/10/14 04:57:27;;;;;;;8.90;3.00;;;;;;;11.75;98.60;102619.41;5092514;28;20089;-74
2021/10/14 04:59:53;;;;;;;19.52;4.10;;;;;;;11.76;98.27;102620.25;5091856;28;20460;-74
2021/10/14 05:02:18;;;;;;;8.57;3.10;;;;;;;11.75;98.19;102621.25;5092360;28;20028;-77
2021/10/14 05:04:43;;;;;;;13.63;3.38;;;;;;;11.69;98.59;102618.97;5092391;28;20028;-76
2021/10/14 05:07:09;;;;;;;9.52;3.58;;;;;;;11.65;98.96;102621.81;5091748;28;20036;-77
2021/10/14 05:09:34;;;;;;;6.65;2.83;;;;;;;11.67;98.79;102615.56;5092268;28;20031;-77
2021/10/14 05:12:00;;;;;;;8.00;3.03;;;;;;;11.68;98.42;102623.44;5092060;28;20380;-77
2021/10/14 05:14:26;;;;;;;14.50;3.55;;;;;;;11.69;98.46;102621.63;5092908;28;20028;-76
2021/10/14 05:16:51;;;;;;;4.93;3.10;;;;;;;11.65;98.51;102613.81;5091657;28;20571;-77
2021/10/14 05:19:17;;;;;;;11.82;3.38;;;;;;;11.69;98.12;102621.63;5092144;28;20115;-77
2021/10/14 05:21:42;;;;;;;6.57;3.20;;;;;;;11.67;98.06;102619.06;5074034;28;20497;-77
2021/10/14 05:24:08;;;;;;;7.07;3.63;;;;;;;11.65;98.72;102610.31;5091529;28;20274;-78
2021/10/14 05:26:33;;;;;;;9.85;3.47;;;;;;;11.63;98.81;102610.44;5074114;28;20123;-76
2021/10/14 05:28:59;;;;;;;9.52;3.85;;;;;;;11.64;98.61;102612.16;5091559;28;20032;-77
2021/10/14 05:31:26;;;;;;;8.90;4.05;;;;;;;11.67;98.76;102605.72;5092034;28;20032;-75
2021/10/14 05:33:54;;;;;;;11.38;3.83;;;;;;;11.72;98.58;102614.28;5091516;28;20032;-76
2021/10/14 05:36:19;;;;;;;5.70;3.38;;;;;;;11.75;98.03;102613.25;5074381;28;20024;-76
2021/10/14 05:38:44;;;;;;;8.57;3.90;;;;;;;11.78;98.15;102613.88;5092162;28;20031;-76
2021/10/14 05:41:10;;;;;;;14.77;4.03;;;;;;;11.79;97.54;102612.03;5091551;28;20443;-76
2021/10/14 05:43:35;;;;;;;10.70;3.63;;;;;;;11.86;97.82;102609.84;5092015;28;20406;-76
2021/10/14 05:46:01;;;;;;;7.25;3.63;;;;;;;11.88;97.35;102622.09;5091503;28;20408;-75
2021/10/14 05:48:26;;;;;;;8.80;3.60;;;;;;;11.93;97.14;102611.16;5091888;28;20488;-78
2021/10/14 05:50:52;;;;;;;10.95;3.55;;;;;;;11.95;96.88;102612.75;5091419;28;20357;-77
2021/10/14 05:53:17;;;;;;;9.20;3.80;;;;;;;11.95;96.68;102611.91;5091944;28;20043;-77
2021/10/14 05:55:42;;;;;;;11.73;3.90;;;;;;;11.96;96.60;102611.78;5091958;28;20032;-76
2021/10/14 05:58:08;;;;;;;5.20;3.50;;;;;;;12.02;96.08;102609.66;5091707;28;20032;-77
2021/10/14 06:00:33;;;;;;;13.23;3.95;;;;;;;12.05;95.92;102609.47;5095444;28;20067;-75
2021/10/14 06:02:58;;;;;;;12.18;3.90;;;;;;;12.06;95.80;102609.38;5094769;28;20036;-76
2021/10/14 06:05:24;;;;;;;13.63;4.22;;;;;;;12.06;96.15;102606.69;5095180;28;20066;-76
2021/10/14 06:07:49;;;;;;;8.15;4.18;;;;;;;12.08;95.17;102606.59;5095379;28;20055;-77
2021/10/14 06:10:15;;;;;;;12.45;4.68;;;;;;;12.11;95.65;102609.88;5094677;28;20050;-78
2021/10/14 06:12:41;;;;;;;9.82;4.88;;;;;;;12.11;95.76;102606.38;5095331;28;20060;-79
2021/10/14 06:15:07;;;;;;;10.57;5.35;;;;;;;12.09;96.12;102603.81;5094603;28;20499;-78
2021/10/14 06:17:33;;;;;;;7.90;5.25;;;;;;;12.09;95.71;102601.16;5095114;28;20065;-75
2021/10/14 06:19:59;;;;;;;16.00;5.38;;;;;;;12.13;95.29;102599.94;5094493;28;20040;-76
2021/10/14 06:22:24;;;;;;;10.40;4.90;;;;;;;12.16;94.84;102593.56;5095257;28;20482;-76
2021/10/14 06:24:50;;;;;;;12.25;4.50;;;;;;;12.17;94.79;102593.44;5095008;28;20420;-76
2021/10/14 06:27:15;;;;;;;12.65;4.82;;;;;;;12.16;94.86;102589.06;5094510;28;20311;-77
2021/10/14 06:29:41;;;;;;;7.38;4.68;;;;;;;12.14;94.45;102593.66;5095069;28;20032;-76
2021/10/14 06:32:06;;;;;;;12.02;4.97;;;;;;;12.12;94.99;102592.94;5094337;28;20047;-75
2021/10/14 06:34:32;;;;;;;12.32;4.70;;;;;;;12.09;94.67;102592.28;5094798;28;20384;-77
2021/10/14 06:36:57;;;;;;;8.68;4.68;;;;;;;12.06;94.93;102585.34;5094223;28;20492;-76
2021/10/14 06:39:22;;;;;;;9.13;4.47;;;;;;;12.07;94.78;102586.19;5089808;28;20048;-78
2021/10/14 06:41:48;;;;;;;11.18;4.65;;;;;;;12.07;93.53;102587.03;5092205;28;20047;-76
2021/10/14 06:44:13;;;;;;;10.80;4.50;;;;;;;12.09;93.44;102581.59;5091373;28;20468;-76
2021/10/14 06:46:39;;;;;;;9.80;4.90;;;;;;;12.12;93.26;102584.06;5091892;28;20510;-76
2021/10/14 06:49:05;;;;;;;6.10;4.47;;;;;;;12.14;92.58;102582.16;5073174;28;20035;-75
2021/10/14 06:51:50;;;;;;;7.38;4.50;;;;;;;12.14;92.84;102592.81;5091387;28;20491;-76
2021/10/14 06:54:15;;;;;;;10.43;4.63;;;;;;;12.11;94.11;102591.22;5090988;28;20044;-72
2021/10/14 06:56:40;;;;;;;13.45;5.13;;;;;;;12.09;93.82;102590.47;5091587;28;20462;-75
2021/10/14 06:59:06;;;;;;;10.05;4.85;;;;;;;12.11;93.83;102593.03;5090956;28;20035;-74
2021/10/14 07:01:31;;;;;;;12.40;4.50;;;;;;;12.13;93.87;102594.63;5091127;28;20139;-75
2021/10/14 07:03:57;;;;;;;8.52;4.82;;;;;;;12.15;94.06;102591.84;5091584;28;20040;-75
2021/10/14 07:06:22;;;;;;;8.23;5.15;;;;;;;12.14;93.72;102592.81;5090603;28;20075;-77
2021/10/14 07:08:47;;;;;;;14.88;5.35;;;;;;;12.16;94.06;102590.88;5091412;28;20027;-76
2021/10/14 07:11:13;;;;;;;11.10;5.00;;;;;;;12.16;94.56;102585.56;5089707;28;20040;-76
2021/10/14 07:13:41;;;;;;;8.63;5.60;;;;;;;12.15;94.98;102589.16;5090988;28;20469;-76
2021/10/14 07:16:06;;;;;;;14.27;5.95;;;;;;;12.18;94.95;102588.97;5090579;28;20469;-75
2021/10/14 07:18:32;;;;;;;12.65;5.90;;;;;;;12.26;93.21;102593.78;5091206;28;20028;-76
2021/10/14 07:20:57;;;;;;;9.85;5.50;;;;;;;12.31;92.58;102589.81;5087808;28;20501;-76
2021/10/14 07:23:22;;;;;;;14.65;6.13;;;;;;;12.38;92.27;102589.41;5092214;28;20039;-76
2021/10/14 07:25:48;;;;;;;14.52;5.93;;;;;;;12.44;91.77;102588.97;5093395;28;20032;-76
2021/10/14 07:28:13;;;;;;;12.15;5.93;;;;;;;12.49;91.98;102586.81;5074998;28;20024;-76
2021/10/14 07:30:40;;;;;;;10.27;5.30;;;;;;;12.55;90.08;102585.53;5093209;28;20114;-76
2021/10/14 07:33:06;;;;;;;7.55;5.25;;;;;;;12.61;90.31;102582.41;5093060;28;20062;-76
2021/10/14 07:35:35;;;;;;;12.38;5.80;;;;;;;12.62;90.55;102584.13;5094273;28;20049;-76
2021/10/14 07:38:03;;;;;;;8.95;5.00;;;;;;;12.68;90.15;102584.53;5093372;28;20032;-76
2021/10/14 07:40:29;;;;;;;10.75;5.35;;;;;;;12.74;90.13;102585.06;5093003;28;20114;-76
2021/10/14 07:42:55;;;;;;;8.93;5.20;;;;;;;12.78;87.81;102586.53;5093470;28;20028;-76
2021/10/14 07:45:21;;;;;;;9.98;5.32;;;;;;;12.85;88.15;102574.44;5092630;28;20073;-76
2021/10/14 07:47:46;;;;;;;10.38;4.97;;;;;;;12.88;88.04;102572.41;5093605;28;20035;-76
2021/10/14 07:50:12;;;;;;;9.60;4.95;;;;;;;12.94;86.87;102578.25;5092698;28;20379;-76
2021/10/14 07:52:38;;;;;;;9.45;5.30;;;;;;;12.96;88.23;102585.22;5093122;28;20039;-76
2021/10/14 07:55:04;;;;;;;8.18;5.30;;;;;;;12.96;88.05;102589.72;5093022;28;20040;-76
2021/10/14 07:57:29;;;;;;;12.60;5.18;;;;;;;12.98;88.39;102588.59;5092719;28;20034;-76
2021/10/14 07:59:54;;;;;;;10.85;5.28;;;;;;;13.05;87.53;102592.53;5092942;28;20114;-76
2021/10/14 08:02:20;;;;;;;10.75;5.72;;;;;;;13.11;87.92;102591.25;5092701;28;20072;-76
2021/10/14 08:04:47;;;;;;;9.93;4.72;;;;;;;13.18;87.02;102600.53;5093118;28;20423;-76
2021/10/14 08:07:13;;;;;;;8.82;4.68;;;;;;;13.25;86.40;102589.38;5092454;28;20040;-76
2021/10/14 08:09:38;;;;;;;7.90;4.03;;;;;;;13.31;85.16;102595.09;5092973;28;20391;-75
2021/10/14 08:12:04;;;;;;;9.43;3.92;;;;;;;13.33;83.85;102597.66;5092734;28;20156;-76
2021/10/14 08:14:29;;;;;;;8.05;3.40;;;;;;;13.36;83.73;102597.47;5092410;28;20032;-76
2021/10/14 08:16:55;;;;;;;7.50;3.60;;;;;;;13.36;83.60;102601.00;5092991;28;20028;-76
2021/10/14 08:19:20;;;;;;;6.57;3.47;;;;;;;13.38;83.94;102604.41;5053124;28;20532;-74
2021/10/14 08:21:45;;;;;;;8.45;3.78;;;;;;;13.46;83.19;102597.63;5061364;28;20040;-75
2021/10/14 08:24:11;;;;;;;7.80;3.22;;;;;;;13.51;82.45;102596.31;5060609;28;20046;-76
2021/10/14 08:26:36;;;;;;;5.90;4.00;;;;;;;13.56;83.21;102594.16;5090960;28;20052;-76
2021/10/14 08:29:02;;;;;;;13.18;3.80;;;;;;;13.61;83.28;102596.47;5091496;28;20035;-76
2021/10/14 08:31:27;;;;;;;6.65;3.35;;;;;;;13.64;81.05;102596.25;5090629;28;20067;-76
2021/10/14 08:33:52;;;;;;;8.50;3.10;;;;;;;13.72;82.06;102591.16;5091411;28;20534;-76
2021/10/14 08:36:19;;;;;;;6.53;3.50;;;;;;;13.82;81.40;102591.31;5090855;28;20034;-76
2021/10/14 08:38:45;;;;;;;9.05;3.88;;;;;;;13.81;80.83;102586.94;5091663;28;20122;-76
2021/10/14 08:41:10;;;;;;;3.60;2.65;;;;;;;13.81;80.93;102599.44;5090776;28;20027;-77
2021/10/14 08:43:39;;;;;;;9.38;3.13;;;;;;;13.71;81.42;102592.13;5090954;28;20085;-77
2021/10/14 08:46:05;;;;;;;4.95;2.75;;;;;;;13.72;80.81;102595.69;5091003;28;20384;-76
2021/10/14 08:48:31;;;;;;;7.63;4.18;;;;;;;13.79;80.71;102598.72;5090579;28;20098;-76
2021/10/14 08:50:56;;;;;;;6.43;3.40;;;;;;;13.87;82.35;102594.50;5091598;28;20526;-77
2021/10/14 08:53:22;;;;;;;5.22;2.88;;;;;;;13.88;81.36;102598.88;5090756;28;20438;-76
2021/10/14 08:55:47;;;;;;;5.80;2.83;;;;;;;14.04;79.94;102590.50;5091818;28;20040;-77
2021/10/14 08:58:14;;;;;;;8.10;2.90;;;;;;;14.33;78.35;102598.09;5090840;28;20032;-77
2021/10/14 09:00:45;;;;;;;6.82;2.50;;;;;;;14.25;77.34;102600.50;5091570;28;20032;-76
2021/10/14 09:03:29;;;;;;;7.20;2.85;;;;;;;14.16;78.92;102604.75;5091688;28;20141;-76
2021/10/14 09:05:54;;;;;;;8.18;2.88;;;;;;;14.00;78.53;102613.16;5091503;28;20032;-76
2021/10/14 09:08:35;;;;;;;5.35;2.88;;;;;;;13.82;81.53;102606.50;5091060;28;20051;-76
2021/10/14 09:11:26;;;;;;;5.50;2.42;;;;;;;13.69;80.44;102601.22;5091547;28;20028;-77
2021/10/14 09:13:55;;;;;;;8.02;2.83;;;;;;;13.75;79.63;102600.78;5091552;28;20068;-75
2021/10/14 09:16:22;;;;;;;11.88;2.97;;;;;;;14.24;80.20;102593.44;5090949;28;20020;-77
2021/10/14 09:18:48;;;;;;;6.38;2.40;;;;;;;16.07;75.07;102593.69;5091239;28;20085;-79
2021/10/14 09:21:41;;;;;;;4.53;2.38;;;;;;;18.41;63.83;102593.09;5090227;28;20032;-78
2021/10/14 09:24:39;;;;;;;7.63;2.65;;;;;;;18.79;60.09;102588.47;5085542;28;20441;-77
2021/10/14 09:27:10;;;;;;;8.55;2.85;;;;;;;18.39;62.45;102592.41;5090100;28;20044;-77
2021/10/14 09:29:38;;;;;;;9.15;2.70;;;;;;;17.85;64.58;102589.38;5088270;28;20070;-75
2021/10/14 09:32:06;;;;;;;4.47;2.53;;;;;;;17.21;66.24;102594.41;5091133;28;20150;-75
2021/10/14 09:34:31;;;;;;;6.82;2.95;;;;;;;17.65;64.70;102583.19;5093183;28;20028;-78
2021/10/14 09:36:58;;;;;;;4.43;2.40;;;;;;;19.27;58.53;102575.72;5095181;28;20426;-77
2021/10/14 09:39:24;;;;;;;8.73;2.92;;;;;;;20.32;55.17;102581.19;5094770;28;20384;-75
2021/10/14 09:41:49;;;;;;;4.20;2.70;;;;;;;20.49;55.14;102575.84;5095111;28;20034;-78
2021/10/14 09:44:17;;;;;;;8.23;2.97;;;;;;;20.43;54.29;102566.53;5094622;28;20027;-77
2021/10/14 09:46:45;;;;;;;5.90;2.88;;;;;;;20.29;55.16;102561.72;5095039;28;20367;-75
2021/10/14 09:49:14;;;;;;;7.43;3.05;;;;;;;19.98;55.48;102576.59;5094722;28;20028;-77
2021/10/14 09:51:41;;;;;;;7.07;3.55;;;;;;;18.97;58.22;102568.81;5094019;28;20061;-75
2021/10/14 09:54:07;;;;;;;5.32;3.08;;;;;;;18.65;59.44;102573.66;5094829;28;20028;-76
2021/10/14 09:56:33;;;;;;;7.82;2.97;;;;;;;19.32;57.67;102568.00;5075974;28;20093;-76
2021/10/14 09:59:01;;;;;;;5.78;3.08;;;;;;;19.35;56.70;102564.13;5094989;28;20028;-76
2021/10/14 10:01:28;;;;;;;9.43;3.08;;;;;;;18.80;59.06;102557.81;5093981;28;20082;-75
2021/10/14 10:03:56;;;;;;;7.28;3.10;;;;;;;18.23;61.72;102567.94;5076089;28;20040;-78
2021/10/14 10:06:32;;;;;;;5.82;2.70;;;;;;;18.57;59.41;102562.81;5094284;28;20043;-76
2021/10/14 10:09:14;;;;;;;7.80;3.20;;;;;;;18.53;60.61;102565.97;5094308;28;20032;-78
2021/10/14 10:11:45;;;;;;;5.30;2.83;;;;;;;17.90;60.87;102565.63;5093806;28;20353;-76
2021/10/14 10:14:11;;;;;;;4.53;2.63;;;;;;;17.25;64.00;102568.06;5094238;28;20081;-77
2021/10/14 10:16:37;;;;;;;6.43;2.85;;;;;;;16.81;65.67;102570.22;5093727;28;20031;-76
2021/10/14 10:19:04;;;;;;;6.72;3.20;;;;;;;16.14;66.98;102559.97;5094359;28;20118;-75
2021/10/14 10:21:30;;;;;;;6.18;3.20;;;;;;;15.70;69.72;102556.56;5093776;28;20032;-74
2021/10/14 10:24:16;;;;;;;7.68;3.60;;;;;;;15.52;69.91;102554.50;5075524;28;20036;-75
2021/10/14 10:26:44;;;;;;;7.28;3.58;;;;;;;15.45;72.08;102552.44;5076717;28;20044;-77
2021/10/14 10:29:12;;;;;;;6.63;2.75;;;;;;;15.31;71.17;102546.38;5094019;28;20039;-77
2021/10/14 10:31:48;;;;;;;10.05;3.30;;;;;;;15.05;71.33;102548.59;5093434;28;20032;-78
2021/10/14 10:34:35;;;;;;;4.70;2.90;;;;;;;14.80;72.03;102552.41;5093998;28;20028;-76
2021/10/14 10:37:24;;;;;;;8.60;2.75;;;;;;;14.44;73.20;102557.91;5094044;28;20036;-75
2021/10/14 10:40:23;;;;;;;6.68;3.00;;;;;;;14.25;75.45;102550.47;5093972;28;20032;-74
2021/10/14 10:43:09;;;;;;;4.90;2.55;;;;;;;14.24;75.83;102547.94;5093482;28;20032;-75
2021/10/14 10:45:40;;;;;;;4.13;2.80;;;;;;;14.45;75.46;102550.72;5091006;28;20032;-75
2021/10/14 10:48:06;;;;;;;6.68;2.58;;;;;;;14.73;74.62;102545.84;5093077;28;20023;-76
2021/10/14 10:50:31;;;;;;;6.30;2.83;;;;;;;15.03;73.47;102530.91;5092418;28;20379;-75
2021/10/14 10:53:19;;;;;;;4.35;2.50;;;;;;;15.26;72.62;102543.25;5093237;28;20471;-75
2021/10/14 10:55:47;;;;;;;6.82;2.88;;;;;;;15.51;72.54;102544.72;5090506;28;20028;-76
2021/10/14 10:58:15;;;;;;;4.68;2.83;;;;;;;15.32;70.15;102544.59;5093171;28;20031;-76
2021/10/14 11:00:43;;;;;;;5.75;2.78;;;;;;;15.01;71.67;102540.94;5089819;28;20032;-75
2021/10/14 11:03:17;;;;;;;7.55;2.85;;;;;;;14.77;72.94;102537.44;5092553;28;20421;-76
2021/10/14 11:05:44;;;;;;;3.42;2.92;;;;;;;14.53;72.41;102531.38;5089781;28;20572;-76
2021/10/14 11:08:11;;;;;;;7.13;2.80;;;;;;;14.38;74.48;102530.78;5092820;28;20024;-75
2021/10/14 11:10:36;;;;;;;4.13;2.85;;;;;;;14.30;74.47;102534.06;5092546;28;20028;-75
2021/10/14 11:13:02;;;;;;;4.78;2.88;;;;;;;14.32;75.00;102526.78;5075172;28;20081;-76